Time;durP1;ratioP1;P1;durP2;ratioP2;P2;SDS_P1;SDS_P2;PMS_P1;PMS_P2;Temp;Humidity;BMP_temperature;BMP_pressure;BME280_temperature;BME280_humidity;BME280_pressure;Samples;Min_cycle;Max_cycle;Signal;HPM_P1;HPM_P2
2020/12/13 00:01:34;;;;;;;43.83;21.40;;;3.60;99.90;;;;;;6938608;28;20402;-73
2020/12/13 00:04:55;;;;;;;48.42;22.80;;;3.70;99.90;;;;;;6950767;28;20969;-74
2020/12/13 00:08:15;;;;;;;45.93;21.67;;;3.60;99.90;;;;;;6952883;28;20486;-75
2020/12/13 00:11:37;;;;;;;47.75;22.27;;;3.50;99.90;;;;;;6951348;28;20399;-74
2020/12/13 00:14:57;;;;;;;41.08;21.02;;;3.40;99.90;;;;;;6954708;28;20776;-75
2020/12/13 00:18:19;;;;;;;45.00;20.92;;;3.40;99.90;;;;;;6955784;28;20393;-74
2020/12/13 00:21:40;;;;;;;40.45;20.63;;;3.40;99.90;;;;;;6949603;28;20745;-75
2020/12/13 00:25:02;;;;;;;45.07;21.63;;;3.30;99.90;;;;;;6956143;28;20400;-75
2020/12/13 00:28:23;;;;;;;40.97;20.38;;;3.40;99.90;;;;;;6949067;28;20434;-74
2020/12/13 00:31:44;;;;;;;42.50;20.30;;;3.40;99.90;;;;;;6955416;28;20949;-74
2020/12/13 00:35:09;;;;;;;44.83;21.50;;;3.40;99.90;;;;;;6955238;28;20463;-74
2020/12/13 00:38:30;;;;;;;43.37;21.10;;;3.50;99.90;;;;;;6948913;28;20391;-74
2020/12/13 00:41:52;;;;;;;43.83;20.80;;;3.40;99.90;;;;;;6956703;28;20391;-74
2020/12/13 00:45:13;;;;;;;43.65;21.45;;;3.50;99.90;;;;;;6947634;28;20750;-74
2020/12/13 00:48:34;;;;;;;45.35;21.85;;;3.50;99.90;;;;;;6957032;28;20418;-74
2020/12/13 00:52:00;;;;;;;46.53;21.20;;;3.40;99.90;;;;;;6960068;28;20397;-75
2020/12/13 00:55:21;;;;;;;44.92;21.13;;;3.30;99.90;;;;;;6951859;28;20425;-75
2020/12/13 00:58:42;;;;;;;42.97;20.80;;;3.30;99.90;;;;;;6960970;28;20382;-75
2020/12/13 01:02:05;;;;;;;41.70;20.37;;;3.30;99.90;;;;;;6955803;28;20399;-74
2020/12/13 01:05:26;;;;;;;41.92;20.90;;;3.40;99.90;;;;;;6957450;28;20393;-73
2020/12/13 01:08:47;;;;;;;45.53;21.17;;;3.50;99.90;;;;;;6956804;28;20409;-74
2020/12/13 01:12:08;;;;;;;43.78;21.80;;;3.40;99.90;;;;;;6956609;28;20388;-74
2020/12/13 01:15:29;;;;;;;44.50;21.83;;;3.40;99.90;;;;;;6958521;28;20858;-75
2020/12/13 01:18:50;;;;;;;42.47;21.13;;;3.30;99.90;;;;;;6957682;28;20435;-74
2020/12/13 01:22:11;;;;;;;43.58;20.52;;;3.30;99.90;;;;;;6953928;28;20389;-75
2020/12/13 01:25:32;;;;;;;43.83;21.88;;;3.40;99.90;;;;;;6958840;28;20903;-74
2020/12/13 01:28:53;;;;;;;47.43;21.80;;;3.50;99.90;;;;;;6948375;28;20771;-74
2020/12/13 01:32:14;;;;;;;42.30;21.10;;;3.50;99.90;;;;;;6959176;28;20401;-74
2020/12/13 01:35:34;;;;;;;46.33;21.50;;;3.50;99.90;;;;;;6956220;28;20780;-75
2020/12/13 01:38:55;;;;;;;42.05;20.60;;;3.50;99.90;;;;;;6955346;28;20458;-74
2020/12/13 01:42:16;;;;;;;44.57;20.50;;;3.50;99.90;;;;;;6960374;28;20389;-75
2020/12/13 01:45:37;;;;;;;42.60;21.20;;;3.50;99.90;;;;;;6952137;28;20925;-75
2020/12/13 01:49:04;;;;;;;45.78;21.00;;;3.40;99.90;;;;;;6958200;28;20417;-73
2020/12/13 01:52:46;;;;;;;42.40;20.73;;;3.40;99.90;;;;;;6958492;28;20489;-75
2020/12/13 01:56:07;;;;;;;44.65;21.85;;;3.40;99.90;;;;;;6955977;28;20416;-74
2020/12/13 01:59:30;;;;;;;44.38;20.75;;;3.40;99.90;;;;;;6958154;28;20729;-74
2020/12/13 02:03:01;;;;;;;44.65;21.05;;;3.40;99.90;;;;;;6952990;28;20907;-74
2020/12/13 02:06:26;;;;;;;43.17;20.90;;;3.40;99.90;;;;;;6956251;28;20481;-75
2020/12/13 02:09:47;;;;;;;39.63;20.48;;;3.40;99.90;;;;;;6950759;28;20400;-74
2020/12/13 02:13:08;;;;;;;42.47;20.50;;;3.40;99.90;;;;;;6955634;28;20404;-75
2020/12/13 02:16:28;;;;;;;42.95;20.65;;;3.30;99.90;;;;;;6949807;28;20441;-74
2020/12/13 02:19:50;;;;;;;43.28;20.75;;;3.30;99.90;;;;;;6956072;28;20397;-74
2020/12/13 02:23:11;;;;;;;43.00;20.60;;;3.40;99.90;;;;;;6956084;28;20439;-74
2020/12/13 02:26:32;;;;;;;40.00;20.47;;;3.40;99.90;;;;;;6949596;28;20431;-75
2020/12/13 02:29:52;;;;;;;42.78;21.13;;;3.40;99.90;;;;;;6956245;28;20402;-74
2020/12/13 02:33:13;;;;;;;38.67;19.03;;;3.30;99.90;;;;;;6948870;28;20469;-75
2020/12/13 02:36:34;;;;;;;37.97;19.20;;;3.30;99.90;;;;;;6955380;28;20422;-75
2020/12/13 02:39:55;;;;;;;42.33;20.33;;;3.20;99.90;;;;;;6956697;28;20468;-74
2020/12/13 02:43:16;;;;;;;39.50;19.77;;;3.30;99.90;;;;;;6950718;28;20391;-75
2020/12/13 02:46:37;;;;;;;40.97;20.60;;;3.30;99.90;;;;;;6957309;28;20773;-74
2020/12/13 02:49:57;;;;;;;39.80;19.80;;;3.40;99.90;;;;;;6952560;28;20881;-75
2020/12/13 02:53:18;;;;;;;44.20;21.20;;;3.40;99.90;;;;;;6953343;28;20446;-74
2020/12/13 02:56:41;;;;;;;41.33;21.15;;;3.40;99.90;;;;;;6957838;28;20413;-75
2020/12/13 03:00:02;;;;;;;40.42;19.95;;;3.50;99.90;;;;;;6952180;28;20422;-75
2020/12/13 03:03:23;;;;;;;40.03;19.43;;;3.40;99.90;;;;;;6955216;28;20393;-75
2020/12/13 03:06:44;;;;;;;38.90;20.27;;;3.30;99.90;;;;;;6954076;28;20398;-74
2020/12/13 03:10:05;;;;;;;40.50;19.92;;;3.30;99.90;;;;;;6952395;28;20907;-74
2020/12/13 03:13:25;;;;;;;38.85;19.55;;;3.30;99.90;;;;;;6954586;28;20428;-74
2020/12/13 03:16:46;;;;;;;38.70;19.00;;;3.30;99.90;;;;;;6951350;28;20413;-74
2020/12/13 03:20:07;;;;;;;39.22;19.20;;;3.30;99.90;;;;;;6954699;28;20478;-75
2020/12/13 03:23:28;;;;;;;37.03;19.35;;;3.30;99.90;;;;;;6943880;28;20395;-75
2020/12/13 03:26:49;;;;;;;35.60;19.23;;;3.30;99.90;;;;;;6953722;28;20406;-75
2020/12/13 03:30:09;;;;;;;37.50;19.40;;;3.30;99.90;;;;;;6952122;28;20487;-74
2020/12/13 03:33:30;;;;;;;38.97;19.37;;;3.30;99.90;;;;;;6948211;28;20911;-75
2020/12/13 03:36:51;;;;;;;38.33;20.02;;;3.40;99.90;;;;;;6951477;28;20443;-74
2020/12/13 03:40:12;;;;;;;37.65;19.70;;;3.40;99.90;;;;;;6952030;28;20393;-74
2020/12/13 03:43:33;;;;;;;38.33;19.90;;;3.30;99.90;;;;;;6952725;28;21027;-74
2020/12/13 03:46:53;;;;;;;41.73;19.60;;;3.30;99.90;;;;;;6949194;28;20397;-74
2020/12/13 03:50:14;;;;;;;41.13;19.75;;;3.30;99.90;;;;;;6952302;28;20409;-74
2020/12/13 03:53:35;;;;;;;36.80;18.58;;;3.30;99.90;;;;;;6950633;28;20863;-75
2020/12/13 03:56:56;;;;;;;38.40;19.23;;;3.30;99.90;;;;;;6948970;28;20899;-75
2020/12/13 04:00:16;;;;;;;36.78;19.13;;;3.20;99.90;;;;;;6955269;28;20394;-75
2020/12/13 04:03:37;;;;;;;38.55;19.27;;;3.20;99.90;;;;;;6946816;28;20397;-75
2020/12/13 04:06:58;;;;;;;35.77;18.23;;;3.20;99.90;;;;;;6955104;28;20822;-75
2020/12/13 04:10:19;;;;;;;41.55;19.10;;;3.30;99.90;;;;;;6952591;28;20430;-74
2020/12/13 04:13:40;;;;;;;41.83;20.40;;;3.10;99.90;;;;;;6953552;28;20421;-74
2020/12/13 04:17:01;;;;;;;41.83;20.00;;;3.20;99.90;;;;;;6956599;28;20409;-75
2020/12/13 04:20:21;;;;;;;44.97;20.80;;;3.20;99.90;;;;;;6946608;28;20394;-75
2020/12/13 04:23:42;;;;;;;39.67;20.03;;;3.10;99.90;;;;;;6952216;28;20405;-74
2020/12/13 04:27:03;;;;;;;45.87;20.87;;;3.20;99.90;;;;;;6954735;28;20398;-74
2020/12/13 04:30:24;;;;;;;46.67;21.45;;;3.20;99.90;;;;;;6947300;28;20426;-74
2020/12/13 04:33:44;;;;;;;45.13;22.17;;;3.20;99.90;;;;;;6952768;28;20408;-74
2020/12/13 04:37:05;;;;;;;44.93;21.17;;;3.20;99.90;;;;;;6948811;28;20486;-75
2020/12/13 04:40:26;;;;;;;43.80;21.13;;;3.20;99.90;;;;;;6954358;28;20473;-74
2020/12/13 04:43:47;;;;;;;46.67;22.10;;;3.10;99.90;;;;;;6951128;28;20907;-74
2020/12/13 04:47:08;;;;;;;53.17;22.70;;;3.20;99.90;;;;;;6950217;28;20909;-74
2020/12/13 04:50:31;;;;;;;49.03;22.60;;;3.20;99.90;;;;;;6952011;28;20418;-75
2020/12/13 04:54:04;;;;;;;48.47;22.88;;;3.20;99.90;;;;;;6949346;28;20873;-75
2020/12/13 04:57:25;;;;;;;54.15;23.17;;;3.10;99.90;;;;;;6952544;28;20454;-75
2020/12/13 05:00:53;;;;;;;48.55;23.02;;;3.10;99.90;;;;;;6950982;28;20398;-74
2020/12/13 05:04:15;;;;;;;51.13;22.98;;;3.20;99.90;;;;;;6948660;28;20395;-74
2020/12/13 05:07:36;;;;;;;55.35;23.30;;;3.20;99.90;;;;;;6952468;28;20391;-75
2020/12/13 05:10:57;;;;;;;52.33;23.80;;;3.20;99.90;;;;;;6947485;28;20885;-75
2020/12/13 05:14:19;;;;;;;50.03;22.83;;;3.20;99.90;;;;;;6951005;28;20488;-75
2020/12/13 05:17:40;;;;;;;51.93;23.90;;;3.10;99.90;;;;;;6951656;28;20411;-74
2020/12/13 05:21:03;;;;;;;51.95;23.42;;;3.10;99.90;;;;;;6947698;28;20398;-74
2020/12/13 05:24:25;;;;;;;49.17;24.20;;;3.20;99.90;;;;;;6950956;28;20926;-75
2020/12/13 05:27:49;;;;;;;55.22;24.42;;;3.30;99.90;;;;;;6953352;28;20404;-75
2020/12/13 05:31:13;;;;;;;50.65;22.77;;;3.30;99.90;;;;;;6944409;28;20398;-74
2020/12/13 05:34:34;;;;;;;53.95;24.30;;;3.30;99.90;;;;;;6954308;28;21071;-75
2020/12/13 05:37:55;;;;;;;56.50;24.17;;;3.20;99.90;;;;;;6952901;28;20892;-74
2020/12/13 05:41:16;;;;;;;48.35;23.00;;;3.20;99.90;;;;;;6958995;28;20397;-75
2020/12/13 05:48:49;;;;;;;55.90;24.50;;;3.30;99.90;;;;;;6942981;28;20406;-75
2020/12/13 05:52:10;;;;;;;53.92;24.17;;;3.30;99.90;;;;;;6946088;28;20387;-74
2020/12/13 05:55:31;;;;;;;50.55;23.40;;;3.30;99.90;;;;;;6952106;28;20462;-74
2020/12/13 05:58:52;;;;;;;49.58;22.88;;;3.30;99.90;;;;;;6954664;28;20398;-74
2020/12/13 06:02:14;;;;;;;50.88;24.20;;;3.40;99.90;;;;;;6940445;28;20433;-75
2020/12/13 06:05:38;;;;;;;54.90;24.25;;;3.50;99.90;;;;;;6947573;28;20901;-73
2020/12/13 06:09:07;;;;;;;49.95;23.02;;;3.50;99.90;;;;;;6949056;28;20910;-75
2020/12/13 06:12:29;;;;;;;51.23;23.23;;;3.40;99.90;;;;;;6945031;28;20912;-75
2020/12/13 06:15:51;;;;;;;48.80;22.70;;;3.40;99.90;;;;;;6953432;28;20485;-75
2020/12/13 06:19:14;;;;;;;51.30;22.93;;;3.40;99.90;;;;;;6939842;28;20403;-73
2020/12/13 06:22:35;;;;;;;50.90;24.10;;;3.40;99.90;;;;;;6948949;28;20456;-73
2020/12/13 06:25:56;;;;;;;52.30;24.02;;;3.50;99.90;;;;;;6947922;28;20420;-73
2020/12/13 06:29:20;;;;;;;48.53;24.37;;;3.30;99.90;;;;;;6943436;28;20401;-74
2020/12/13 06:32:42;;;;;;;49.27;23.20;;;3.30;99.90;;;;;;6935629;28;20749;-74
2020/12/13 06:36:04;;;;;;;52.23;23.37;;;3.30;99.90;;;;;;6937090;28;20417;-74
2020/12/13 06:39:26;;;;;;;48.77;23.03;;;3.30;99.90;;;;;;6939954;28;20394;-74
2020/12/13 06:42:49;;;;;;;50.72;23.20;;;3.40;99.90;;;;;;6938448;28;20469;-74
2020/12/13 06:46:12;;;;;;;54.85;24.35;;;3.30;99.90;;;;;;6939333;28;20402;-73
2020/12/13 06:49:32;;;;;;;55.47;23.90;;;3.50;99.90;;;;;;6947762;28;20498;-74
2020/12/13 06:52:54;;;;;;;54.13;23.80;;;3.40;99.90;;;;;;6941994;28;20395;-74
2020/12/13 06:56:15;;;;;;;53.60;23.75;;;3.40;99.90;;;;;;6940239;28;20414;-74
2020/12/13 06:59:43;;;;;;;51.38;23.27;;;3.40;99.90;;;;;;6946087;28;20535;-74
2020/12/13 07:03:04;;;;;;;53.55;23.83;;;3.40;99.90;;;;;;6937781;28;20445;-74
2020/12/13 07:06:43;;;;;;;49.60;23.25;;;3.40;99.90;;;;;;6942479;28;20747;-74
2020/12/13 07:10:08;;;;;;;55.13;23.57;;;3.30;99.90;;;;;;6926972;28;20411;-74
2020/12/13 07:13:30;;;;;;;50.20;23.23;;;3.30;99.90;;;;;;6950308;28;20937;-74
2020/12/13 07:17:04;;;;;;;55.53;24.50;;;3.40;99.90;;;;;;6940496;28;20409;-74
2020/12/13 07:20:25;;;;;;;57.65;24.33;;;3.40;99.90;;;;;;6931279;28;20413;-74
2020/12/13 07:23:46;;;;;;;50.67;22.90;;;3.40;99.90;;;;;;6931429;28;20405;-74
2020/12/13 07:27:08;;;;;;;54.05;22.98;;;3.40;99.90;;;;;;6933157;28;20761;-74
2020/12/13 07:30:29;;;;;;;51.47;23.67;;;3.30;99.90;;;;;;6933254;28;20426;-74
2020/12/13 07:33:50;;;;;;;49.22;22.63;;;3.30;99.90;;;;;;6936466;28;20886;-74
2020/12/13 07:37:14;;;;;;;55.60;23.63;;;3.40;99.90;;;;;;6937676;28;20454;-74
2020/12/13 07:40:35;;;;;;;56.00;24.40;;;3.50;99.90;;;;;;6937949;28;20805;-74
2020/12/13 07:44:02;;;;;;;49.45;23.55;;;3.50;99.90;;;;;;6937075;28;20476;-75
2020/12/13 07:47:23;;;;;;;51.05;23.83;;;3.50;99.90;;;;;;6938270;28;20478;-74
2020/12/13 07:50:46;;;;;;;55.10;24.00;;;3.50;99.90;;;;;;6941726;28;20761;-74
2020/12/13 07:54:17;;;;;;;57.47;24.20;;;3.50;99.90;;;;;;6941440;28;20387;-74
2020/12/13 07:57:38;;;;;;;54.53;22.40;;;3.50;99.90;;;;;;6937935;28;20425;-73
2020/12/13 08:01:09;;;;;;;58.13;23.80;;;3.40;99.90;;;;;;6933196;28;20405;-74
2020/12/13 08:04:37;;;;;;;55.50;23.42;;;3.30;99.90;;;;;;6930804;28;20392;-73
2020/12/13 08:07:59;;;;;;;54.58;24.27;;;3.50;99.90;;;;;;6925351;28;20400;-75
2020/12/13 08:11:21;;;;;;;52.83;23.13;;;3.50;99.90;;;;;;6929236;28;20435;-75
2020/12/13 08:14:47;;;;;;;53.73;22.30;;;3.40;99.90;;;;;;6942451;28;20396;-74
2020/12/13 08:18:12;;;;;;;50.00;22.00;;;3.50;99.90;;;;;;6945268;28;20395;-75
2020/12/13 08:21:53;;;;;;;53.70;23.27;;;3.40;99.90;;;;;;6951293;28;20429;-74
2020/12/13 08:25:14;;;;;;;50.40;22.00;;;3.40;99.90;;;;;;6928535;28;20744;-74
2020/12/13 08:28:37;;;;;;;54.00;22.63;;;3.50;99.90;;;;;;6947610;28;20398;-74
2020/12/13 08:32:00;;;;;;;58.28;23.58;;;3.40;99.90;;;;;;6947889;28;20399;-74
2020/12/13 08:35:21;;;;;;;52.75;22.90;;;3.40;99.90;;;;;;6952581;28;20422;-75
2020/12/13 08:38:41;;;;;;;57.85;23.10;;;3.50;99.90;;;;;;6956443;28;20476;-74
2020/12/13 08:42:07;;;;;;;58.17;25.02;;;3.50;99.90;;;;;;6950586;28;20394;-74
2020/12/13 08:45:27;;;;;;;52.63;22.52;;;3.60;99.90;;;;;;6944716;28;20406;-75
2020/12/13 08:48:51;;;;;;;55.47;24.73;;;3.40;99.90;;;;;;6952273;28;20419;-74
2020/12/13 08:52:22;;;;;;;51.50;23.80;;;3.50;99.90;;;;;;6952895;28;20399;-74
2020/12/13 08:55:42;;;;;;;55.53;24.67;;;3.50;99.90;;;;;;6935410;28;20414;-74
2020/12/13 08:59:07;;;;;;;57.30;24.00;;;3.50;99.90;;;;;;6946521;28;20427;-74
2020/12/13 09:02:28;;;;;;;59.22;26.00;;;3.50;99.90;;;;;;6953087;28;20759;-74
2020/12/13 09:05:52;;;;;;;52.90;24.60;;;3.60;99.90;;;;;;6936311;28;20407;-74
2020/12/13 09:09:14;;;;;;;56.45;24.40;;;3.60;99.90;;;;;;6934409;28;20857;-74
2020/12/13 09:12:37;;;;;;;52.97;23.30;;;3.60;99.90;;;;;;6944580;28;20403;-74
2020/12/13 09:15:58;;;;;;;57.03;24.10;;;3.70;99.90;;;;;;6955823;28;20445;-74
2020/12/13 09:19:18;;;;;;;54.57;23.17;;;3.70;99.90;;;;;;6948371;28;20395;-74
2020/12/13 09:22:39;;;;;;;59.37;23.63;;;3.70;99.90;;;;;;6950224;28;20863;-74
2020/12/13 09:26:00;;;;;;;53.60;23.33;;;3.70;99.90;;;;;;6947257;28;20407;-74
2020/12/13 09:29:20;;;;;;;56.20;24.00;;;3.70;99.90;;;;;;6950827;28;20896;-74
2020/12/13 09:32:41;;;;;;;51.22;22.88;;;3.70;99.90;;;;;;6953501;28;20393;-74
2020/12/13 09:36:02;;;;;;;53.97;22.75;;;3.80;99.90;;;;;;6959420;28;20444;-75
2020/12/13 09:39:23;;;;;;;52.22;23.67;;;3.90;99.90;;;;;;6960200;28;20389;-74
2020/12/13 09:42:44;;;;;;;56.17;25.47;;;4.00;99.90;;;;;;6953124;28;20397;-74
2020/12/13 09:46:04;;;;;;;61.80;24.25;;;4.00;99.90;;;;;;6958750;28;20393;-74
2020/12/13 09:49:26;;;;;;;56.73;24.03;;;3.90;99.90;;;;;;6939311;28;20481;-74
2020/12/13 09:52:47;;;;;;;54.57;23.87;;;4.00;99.90;;;;;;6924922;28;20911;-75
2020/12/13 09:56:08;;;;;;;57.93;24.80;;;3.90;99.90;;;;;;6928403;28;20459;-74
2020/12/13 09:59:29;;;;;;;58.55;24.85;;;3.80;99.90;;;;;;6933518;28;20396;-74
2020/12/13 10:02:50;;;;;;;60.53;28.13;;;3.80;99.90;;;;;;6928431;28;20413;-75
2020/12/13 10:09:45;;;;;;;54.07;26.43;;;3.90;99.90;;;;;;6933753;28;20406;-73
2020/12/13 10:13:06;;;;;;;55.38;23.40;;;4.00;99.90;;;;;;6926617;28;20397;-74
2020/12/13 10:16:27;;;;;;;56.42;27.17;;;4.10;99.90;;;;;;6937468;28;20415;-74
2020/12/13 10:19:48;;;;;;;58.40;24.50;;;4.00;99.90;;;;;;6948949;28;20386;-75
2020/12/13 10:23:09;;;;;;;53.67;25.67;;;4.10;99.90;;;;;;6950302;28;20395;-74
2020/12/13 10:26:34;;;;;;;56.15;25.23;;;4.30;99.90;;;;;;6941391;28;20417;-75
2020/12/13 10:29:55;;;;;;;58.40;25.63;;;4.40;99.90;;;;;;6943265;28;20401;-74
2020/12/13 10:33:17;;;;;;;66.33;24.93;;;4.30;99.90;;;;;;6939776;28;20402;-74
2020/12/13 10:36:39;;;;;;;62.22;25.27;;;4.30;99.90;;;;;;6940200;28;20503;-74
2020/12/13 10:39:59;;;;;;;63.58;25.77;;;4.20;99.90;;;;;;6954088;28;20860;-72
2020/12/13 10:43:22;;;;;;;58.10;24.73;;;4.30;99.90;;;;;;6949670;28;20402;-74
2020/12/13 10:46:42;;;;;;;59.83;25.20;;;4.20;99.90;;;;;;6948192;28;20947;-74
2020/12/13 10:50:03;;;;;;;61.77;25.90;;;4.30;99.90;;;;;;6952509;28;20423;-74
2020/12/13 10:53:24;;;;;;;64.87;26.20;;;4.30;99.90;;;;;;6933819;28;20455;-74
2020/12/13 10:56:45;;;;;;;58.88;25.98;;;4.30;99.90;;;;;;6933974;28;20503;-73
2020/12/13 11:00:06;;;;;;;61.17;25.05;;;4.40;99.90;;;;;;6944597;28;20410;-73
2020/12/13 11:03:27;;;;;;;61.95;25.70;;;4.40;99.90;;;;;;6940646;28;20815;-74
2020/12/13 11:06:47;;;;;;;59.60;26.27;;;4.30;99.90;;;;;;6943062;28;20398;-74
2020/12/13 11:10:08;;;;;;;62.67;25.43;;;4.30;99.90;;;;;;6943860;28;20406;-74
2020/12/13 11:13:30;;;;;;;62.40;25.45;;;4.30;99.90;;;;;;6943584;28;20398;-74
2020/12/13 11:16:50;;;;;;;62.03;25.52;;;4.30;99.90;;;;;;6946556;28;20414;-74
2020/12/13 11:20:11;;;;;;;61.37;26.83;;;4.30;99.90;;;;;;6941632;28;20427;-74
2020/12/13 11:23:32;;;;;;;55.60;25.48;;;4.20;99.90;;;;;;6945038;28;20403;-75
2020/12/13 11:26:53;;;;;;;60.28;25.70;;;4.20;99.90;;;;;;6950618;28;20464;-74
2020/12/13 11:30:13;;;;;;;61.97;27.03;;;4.30;99.90;;;;;;6953639;28;20397;-74
2020/12/13 11:33:34;;;;;;;59.45;26.27;;;4.30;99.90;;;;;;6953992;28;20403;-73
2020/12/13 11:36:55;;;;;;;62.63;26.70;;;4.40;99.90;;;;;;6953238;28;20782;-74
2020/12/13 11:40:16;;;;;;;60.73;26.00;;;4.40;99.90;;;;;;6954670;28;20399;-74
2020/12/13 11:43:36;;;;;;;60.75;26.70;;;4.30;99.90;;;;;;6947954;28;20416;-74
2020/12/13 11:46:57;;;;;;;68.15;27.48;;;4.30;99.90;;;;;;6936385;28;20777;-72
2020/12/13 11:50:18;;;;;;;65.97;26.30;;;4.20;99.90;;;;;;6937932;28;20410;-72
2020/12/13 11:53:39;;;;;;;68.53;27.03;;;4.20;99.90;;;;;;6933599;28;20502;-72
2020/12/13 11:56:59;;;;;;;66.97;27.15;;;4.30;99.90;;;;;;6946653;28;20411;-73
2020/12/13 12:00:20;;;;;;;67.82;26.98;;;4.30;99.90;;;;;;6954066;28;20442;-73
2020/12/13 12:03:41;;;;;;;65.83;26.40;;;4.30;99.90;;;;;;6941263;28;21160;-73
2020/12/13 12:07:02;;;;;;;66.85;26.75;;;4.20;99.90;;;;;;6948419;28;20393;-73
2020/12/13 12:10:23;;;;;;;65.65;27.05;;;4.30;99.90;;;;;;6949335;28;20497;-73
2020/12/13 12:13:44;;;;;;;62.13;26.10;;;4.30;99.90;;;;;;6950478;28;20391;-72
2020/12/13 12:17:05;;;;;;;65.78;27.60;;;4.30;99.90;;;;;;6952616;28;20909;-72
2020/12/13 12:20:28;;;;;;;64.38;27.48;;;4.30;99.90;;;;;;6949132;28;20405;-72
2020/12/13 12:23:49;;;;;;;61.63;27.35;;;4.40;99.90;;;;;;6948337;28;20480;-72
2020/12/13 12:27:10;;;;;;;67.10;27.90;;;4.40;99.90;;;;;;6952952;28;20389;-72
2020/12/13 12:30:31;;;;;;;63.60;27.45;;;4.40;99.90;;;;;;6952611;28;20404;-72
2020/12/13 12:33:52;;;;;;;61.37;27.00;;;4.40;99.90;;;;;;6950153;28;20499;-72
2020/12/13 12:37:13;;;;;;;64.45;27.52;;;4.30;99.90;;;;;;6946052;28;20472;-72
2020/12/13 12:40:33;;;;;;;63.90;27.67;;;4.30;99.90;;;;;;6946556;28;20415;-72
2020/12/13 12:43:54;;;;;;;72.35;28.05;;;4.40;99.90;;;;;;6938260;28;20825;-72
2020/12/13 12:47:15;;;;;;;68.97;27.33;;;4.30;99.90;;;;;;6935901;28;20428;-74
2020/12/13 12:50:36;;;;;;;70.37;27.80;;;4.40;99.90;;;;;;6942030;28;20423;-74
2020/12/13 12:53:57;;;;;;;68.82;27.90;;;4.50;99.90;;;;;;6954007;28;20395;-74
2020/12/13 12:57:18;;;;;;;64.97;27.47;;;4.40;99.90;;;;;;6940856;28;20505;-70
2020/12/13 13:00:43;;;;;;;64.68;26.85;;;4.40;99.90;;;;;;6938468;28;20754;-74
2020/12/13 13:04:09;;;;;;;69.43;27.00;;;4.40;99.90;;;;;;6941448;28;20399;-74
2020/12/13 13:07:33;;;;;;;68.53;27.20;;;4.60;99.90;;;;;;6943826;28;20421;-74
2020/12/13 13:11:02;;;;;;;68.40;27.80;;;4.60;99.90;;;;;;6953928;28;20485;-74
2020/12/13 13:14:23;;;;;;;67.60;28.20;;;4.60;99.90;;;;;;6943630;28;20405;-74
2020/12/13 13:17:50;;;;;;;61.50;27.67;;;4.50;99.90;;;;;;6919154;28;20503;-75
2020/12/13 13:21:11;;;;;;;68.88;27.88;;;4.60;99.90;;;;;;6919809;28;20423;-73
2020/12/13 13:24:32;;;;;;;66.47;27.60;;;4.60;99.90;;;;;;6949456;28;20399;-72
2020/12/13 13:27:52;;;;;;;66.53;28.80;;;4.50;99.90;;;;;;6951874;28;20431;-72
2020/12/13 13:31:14;;;;;;;72.30;27.23;;;4.50;99.90;;;;;;6955330;28;20815;-72
2020/12/13 13:34:36;;;;;;;60.30;25.95;;;4.50;99.90;;;;;;6958331;28;20878;-72
2020/12/13 13:37:56;;;;;;;72.17;28.17;;;4.60;99.90;;;;;;6955723;28;20413;-72
2020/12/13 13:41:25;;;;;;;72.03;28.52;;;4.60;99.90;;;;;;6960950;28;20527;-72
2020/12/13 13:44:55;;;;;;;65.00;27.60;;;4.60;99.90;;;;;;6952470;28;20428;-72
2020/12/13 13:51:54;;;;;;;71.35;28.58;;;4.60;99.90;;;;;;6950700;28;21027;-72
2020/12/13 13:55:19;;;;;;;72.00;28.60;;;4.70;99.90;;;;;;6956843;28;20405;-72
2020/12/13 13:58:41;;;;;;;69.57;28.40;;;4.50;99.90;;;;;;6955231;28;20932;-72
2020/12/13 14:02:02;;;;;;;72.13;28.88;;;4.50;99.90;;;;;;6955896;28;20393;-72
2020/12/13 14:05:25;;;;;;;79.10;30.70;;;4.40;99.90;;;;;;6955437;28;20408;-73
2020/12/13 14:08:46;;;;;;;89.47;30.75;;;4.50;99.90;;;;;;6946911;28;20812;-73
2020/12/13 14:12:06;;;;;;;77.43;28.75;;;4.60;99.90;;;;;;6952081;28;20416;-73
2020/12/13 14:15:27;;;;;;;84.80;28.80;;;4.60;99.90;;;;;;6948098;28;20530;-73
2020/12/13 14:18:50;;;;;;;82.68;29.90;;;4.70;99.90;;;;;;6942636;28;20393;-73
2020/12/13 14:22:11;;;;;;;87.57;31.27;;;4.60;99.90;;;;;;6940657;28;20495;-71
2020/12/13 14:25:31;;;;;;;86.35;31.40;;;4.60;99.90;;;;;;6929324;28;20557;-74
2020/12/13 14:28:52;;;;;;;77.22;30.02;;;4.60;99.90;;;;;;6932321;28;20444;-73
2020/12/13 14:32:14;;;;;;;85.30;31.23;;;4.60;99.90;;;;;;6924565;28;20389;-75
2020/12/13 14:35:35;;;;;;;87.10;31.55;;;4.70;99.90;;;;;;6927194;28;20444;-74
2020/12/13 14:38:56;;;;;;;84.03;29.50;;;4.80;99.90;;;;;;6941439;28;20916;-74
2020/12/13 14:42:17;;;;;;;86.63;30.33;;;4.70;99.90;;;;;;6948244;28;20421;-73
2020/12/13 14:45:38;;;;;;;93.57;32.07;;;4.60;99.90;;;;;;6947568;28;20897;-73
2020/12/13 14:48:58;;;;;;;90.45;30.83;;;4.60;99.90;;;;;;6946267;28;20429;-73
2020/12/13 14:52:19;;;;;;;93.47;31.55;;;4.60;99.90;;;;;;6939755;28;20411;-72
2020/12/13 14:55:40;;;;;;;89.50;31.93;;;4.50;99.90;;;;;;6935121;28;20414;-73
2020/12/13 14:59:01;;;;;;;99.28;32.08;;;4.50;99.90;;;;;;6938030;28;20392;-73
2020/12/13 15:02:25;;;;;;;107.87;32.30;;;4.40;99.90;;;;;;6936514;28;20535;-72
2020/12/13 15:05:46;;;;;;;89.70;32.07;;;4.40;99.90;;;;;;6947767;28;20411;-72
2020/12/13 15:09:07;;;;;;;98.82;31.90;;;4.50;99.90;;;;;;6952487;28;20775;-73
2020/12/13 15:12:27;;;;;;;110.20;34.13;;;4.50;99.90;;;;;;6943114;28;20778;-73
2020/12/13 15:16:01;;;;;;;90.65;32.33;;;4.50;99.90;;;;;;6940381;28;20590;-74
2020/12/13 15:19:21;;;;;;;92.65;32.15;;;4.40;99.90;;;;;;6938513;28;21186;-74
2020/12/13 15:22:42;;;;;;;109.35;34.60;;;4.40;99.90;;;;;;6928966;28;20385;-73
2020/12/13 15:26:03;;;;;;;109.03;33.10;;;4.50;99.90;;;;;;6941178;28;20886;-74
2020/12/13 15:29:24;;;;;;;102.20;34.20;;;4.50;99.90;;;;;;6934566;28;20396;-75
2020/12/13 15:32:45;;;;;;;93.25;32.30;;;4.60;99.90;;;;;;6930791;28;20393;-73
2020/12/13 15:36:05;;;;;;;100.70;32.10;;;4.50;99.90;;;;;;6947501;28;20822;-72
2020/12/13 15:39:26;;;;;;;104.97;33.33;;;4.40;99.90;;;;;;6943717;28;20398;-72
2020/12/13 15:42:47;;;;;;;99.73;32.50;;;4.40;99.90;;;;;;6942978;28;20445;-72
2020/12/13 15:46:07;;;;;;;82.22;29.77;;;4.60;99.90;;;;;;6934495;28;20394;-73
2020/12/13 15:49:28;;;;;;;113.83;39.23;;;4.60;99.90;;;;;;6938522;28;20415;-69
2020/12/13 15:52:49;;;;;;;137.20;42.00;;;4.60;99.90;;;;;;6941775;28;20393;-71
2020/12/13 15:56:11;;;;;;;118.72;39.85;;;4.60;99.90;;;;;;6947618;28;20469;-70
2020/12/13 15:59:32;;;;;;;96.22;31.92;;;4.60;99.90;;;;;;6935043;28;20387;-72
2020/12/13 16:02:53;;;;;;;103.03;31.42;;;4.70;99.90;;;;;;6939773;28;20418;-73
2020/12/13 16:06:13;;;;;;;94.80;31.87;;;4.70;99.90;;;;;;6938606;28;20410;-72
2020/12/13 16:09:34;;;;;;;91.65;30.67;;;4.60;99.90;;;;;;6941237;28;20731;-73
2020/12/13 16:13:03;;;;;;;95.60;30.85;;;4.60;99.90;;;;;;6930945;28;20389;-72
2020/12/13 16:16:23;;;;;;;94.00;31.83;;;4.70;99.90;;;;;;6917043;28;20805;-71
2020/12/13 16:19:44;;;;;;;91.45;30.80;;;4.80;99.90;;;;;;6945344;28;20416;-73
2020/12/13 16:23:05;;;;;;;89.95;30.13;;;4.80;99.90;;;;;;6940612;28;20391;-73
2020/12/13 16:26:26;;;;;;;91.88;30.10;;;4.60;99.90;;;;;;6933756;28;20412;-70
2020/12/13 16:29:47;;;;;;;105.00;31.90;;;4.60;99.90;;;;;;6937885;28;20407;-73
2020/12/13 16:33:07;;;;;;;85.57;30.70;;;4.70;99.90;;;;;;6939031;28;20418;-74
2020/12/13 16:36:30;;;;;;;98.82;30.02;;;4.50;99.90;;;;;;6938322;28;20403;-72
2020/12/13 16:39:51;;;;;;;101.20;31.15;;;4.60;99.90;;;;;;6940473;28;20402;-71
2020/12/13 16:46:53;;;;;;;107.85;31.75;;;4.50;99.90;;;;;;6940255;28;20394;-74
2020/12/13 16:50:52;;;;;;;104.72;33.50;;;4.60;99.90;;;;;;6935223;28;20435;-74
2020/12/13 16:57:24;;;;;;;94.45;30.48;;;4.60;99.90;;;;;;6954433;28;20978;-73
2020/12/13 17:00:46;;;;;;;95.40;30.38;;;4.70;99.90;;;;;;6939833;28;20457;-72
2020/12/13 17:04:08;;;;;;;90.15;30.50;;;4.70;99.90;;;;;;6946030;28;20477;-73
2020/12/13 17:07:43;;;;;;;101.75;31.30;;;4.80;99.90;;;;;;7048384;27;20665;-68
2020/12/13 17:11:04;;;;;;;107.38;31.17;;;4.80;99.90;;;;;;6980617;28;20403;-68
2020/12/13 17:14:25;;;;;;;113.57;30.37;;;4.70;99.90;;;;;;7015589;28;20383;-68
2020/12/13 17:17:48;;;;;;;118.80;32.38;;;4.70;99.90;;;;;;6981446;28;20424;-68
2020/12/13 17:21:09;;;;;;;113.53;31.58;;;4.70;99.90;;;;;;6980033;28;20925;-69
2020/12/13 17:24:31;;;;;;;120.45;30.92;;;4.70;99.90;;;;;;6979318;28;20410;-68
2020/12/13 17:27:52;;;;;;;112.00;29.53;;;4.60;99.90;;;;;;6993938;28;20472;-68
2020/12/13 17:31:13;;;;;;;121.35;31.15;;;4.60;99.90;;;;;;6973468;28;20888;-69
2020/12/13 17:34:35;;;;;;;92.32;29.50;;;4.60;99.90;;;;;;6990589;28;20785;-68